Time;durP1;ratioP1;P1;durP2;ratioP2;P2;SDS_P1;SDS_P2;PMS_P1;PMS_P2;Temp;Humidity;BMP_temperature;BMP_pressure;BME280_temperature;BME280_humidity;BME280_pressure;Samples;Min_cycle;Max_cycle;Signal;HPM_P1;HPM_P2
2023/04/28 00:00:56;;;;;;;8.05;5.82;;;;;;;;;;5037955;28;20415;-83
2023/04/28 00:03:22;;;;;;;8.52;6.03;;;;;;;;;;5020754;28;20473;-83
2023/04/28 00:05:52;;;;;;;7.47;6.00;;;;;;;;;;5037865;28;20408;-83
2023/04/28 00:08:20;;;;;;;7.40;6.13;;;;;;;;;;5037259;28;20427;-83
2023/04/28 00:10:46;;;;;;;7.28;5.57;;;;;;;;;;5037852;28;20412;-83
2023/04/28 00:13:15;;;;;;;6.72;5.78;;;;;;;;;;5037267;28;20415;-83
2023/04/28 00:15:41;;;;;;;8.48;5.63;;;;;;;;;;5037475;28;20411;-83
2023/04/28 00:18:12;;;;;;;7.40;5.53;;;;;;;;;;5037078;28;20404;-83
2023/04/28 00:20:42;;;;;;;6.68;5.30;;;;;;;;;;5037182;28;20412;-83
2023/04/28 00:23:08;;;;;;;7.25;5.55;;;;;;;;;;5037415;28;20438;-83
2023/04/28 00:25:37;;;;;;;6.68;5.97;;;;;;;;;;5037451;28;20491;-83
2023/04/28 00:28:03;;;;;;;7.85;5.63;;;;;;;;;;5037016;28;20428;-83
2023/04/28 00:30:29;;;;;;;7.97;5.70;;;;;;;;;;5037053;28;20415;-83
2023/04/28 00:32:55;;;;;;;7.05;5.38;;;;;;;;;;5037028;28;20513;-83
2023/04/28 00:35:22;;;;;;;6.88;5.43;;;;;;;;;;5037301;28;20412;-83
2023/04/28 00:37:48;;;;;;;7.20;5.47;;;;;;;;;;5037240;28;20416;-83
2023/04/28 00:40:19;;;;;;;6.22;5.63;;;;;;;;;;5036815;28;20408;-83
2023/04/28 00:42:46;;;;;;;7.17;5.33;;;;;;;;;;5027824;28;20207;-83
2023/04/28 00:45:12;;;;;;;7.05;5.40;;;;;;;;;;5037799;28;20400;-83
2023/04/28 00:47:40;;;;;;;6.67;5.07;;;;;;;;;;5037593;28;20224;-83
2023/04/28 00:50:07;;;;;;;6.10;5.50;;;;;;;;;;5036850;28;20477;-83
2023/04/28 00:52:36;;;;;;;7.07;5.47;;;;;;;;;;5037206;28;20461;-83
2023/04/28 00:55:05;;;;;;;5.88;5.28;;;;;;;;;;5036306;28;20419;-83
2023/04/28 00:57:31;;;;;;;7.28;5.68;;;;;;;;;;5036567;28;20408;-83
2023/04/28 00:59:57;;;;;;;7.57;5.05;;;;;;;;;;5037549;28;20412;-83
2023/04/28 01:02:26;;;;;;;7.10;5.30;;;;;;;;;;5019926;28;20415;-83
2023/04/28 01:04:53;;;;;;;5.80;5.28;;;;;;;;;;5036518;28;20416;-83
2023/04/28 01:07:19;;;;;;;6.87;5.33;;;;;;;;;;5020562;28;20432;-83
2023/04/28 01:09:48;;;;;;;7.80;5.60;;;;;;;;;;5036666;28;20476;-83
2023/04/28 01:12:14;;;;;;;6.95;5.32;;;;;;;;;;5036846;28;20411;-83
2023/04/28 01:14:41;;;;;;;6.00;5.30;;;;;;;;;;5036722;28;20452;-83
2023/04/28 01:17:10;;;;;;;6.00;5.10;;;;;;;;;;5037223;28;20425;-84
2023/04/28 01:19:36;;;;;;;6.87;5.33;;;;;;;;;;5036497;28;20226;-83
2023/04/28 01:22:03;;;;;;;5.95;5.35;;;;;;;;;;5036495;28;20405;-83
2023/04/28 01:24:29;;;;;;;11.40;6.00;;;;;;;;;;5036887;28;20219;-84
2023/04/28 01:26:55;;;;;;;6.00;5.40;;;;;;;;;;5037230;28;20184;-83
2023/04/28 01:29:21;;;;;;;7.03;5.37;;;;;;;;;;5036747;28;20172;-84
2023/04/28 01:31:47;;;;;;;9.03;5.60;;;;;;;;;;5037202;28;20187;-83
2023/04/28 01:34:13;;;;;;;8.90;6.13;;;;;;;;;;5036568;28;20183;-83
2023/04/28 01:36:42;;;;;;;8.07;5.83;;;;;;;;;;5037065;28;20221;-84
2023/04/28 01:39:08;;;;;;;7.50;6.37;;;;;;;;;;5036590;28;20186;-83
2023/04/28 01:41:34;;;;;;;9.37;6.33;;;;;;;;;;5037121;28;20179;-84
2023/04/28 01:44:02;;;;;;;9.93;6.30;;;;;;;;;;5036994;28;20206;-84
2023/04/28 01:46:28;;;;;;;7.53;6.13;;;;;;;;;;5036662;28;20179;-83
2023/04/28 01:48:55;;;;;;;8.57;6.60;;;;;;;;;;5036232;28;20196;-83
2023/04/28 01:51:21;;;;;;;6.30;5.57;;;;;;;;;;5017174;28;20275;-84
2023/04/28 01:53:47;;;;;;;8.67;6.87;;;;;;;;;;5016833;28;20243;-83
2023/04/28 01:56:13;;;;;;;7.27;6.37;;;;;;;;;;5017786;28;20235;-83
2023/04/28 01:58:39;;;;;;;7.73;6.03;;;;;;;;;;5036661;28;20180;-83
2023/04/28 02:01:05;;;;;;;8.45;7.10;;;;;;;;;;5035779;28;20419;-83
2023/04/28 02:03:31;;;;;;;8.65;7.45;;;;;;;;;;5035604;28;20432;-83
2023/04/28 02:06:00;;;;;;;7.80;7.00;;;;;;;;;;5035304;28;20427;-83
2023/04/28 02:08:26;;;;;;;7.20;6.30;;;;;;;;;;5034602;28;20500;-83
2023/04/28 02:10:52;;;;;;;8.65;6.75;;;;;;;;;;5035261;28;20408;-83
2023/04/28 02:13:20;;;;;;;9.10;6.37;;;;;;;;;;5036136;28;20168;-83
2023/04/28 02:15:46;;;;;;;7.40;6.22;;;;;;;;;;5035697;28;20410;-83
2023/04/28 02:18:12;;;;;;;8.03;5.93;;;;;;;;;;5019664;28;20305;-83
2023/04/28 02:20:38;;;;;;;9.77;5.93;;;;;;;;;;5036405;28;20262;-83
2023/04/28 02:23:05;;;;;;;8.53;6.40;;;;;;;;;;5036412;28;20188;-83
2023/04/28 02:25:31;;;;;;;8.13;6.70;;;;;;;;;;5019376;28;20444;-83
2023/04/28 02:27:58;;;;;;;7.37;5.90;;;;;;;;;;5019317;28;20214;-83
2023/04/28 02:30:24;;;;;;;7.93;6.28;;;;;;;;;;5035233;28;20427;-83
2023/04/28 02:32:50;;;;;;;7.13;5.57;;;;;;;;;;5040181;28;20173;-83
2023/04/28 02:35:16;;;;;;;6.70;5.97;;;;;;;;;;5040555;28;20259;-83
2023/04/28 02:37:42;;;;;;;7.80;6.10;;;;;;;;;;5040161;28;20490;-83
2023/04/28 02:40:09;;;;;;;7.10;6.40;;;;;;;;;;5039236;28;20412;-83
2023/04/28 02:42:37;;;;;;;6.73;5.77;;;;;;;;;;5020045;28;20180;-83
2023/04/28 02:45:03;;;;;;;7.93;5.77;;;;;;;;;;5020171;28;20180;-83
2023/04/28 02:47:29;;;;;;;7.10;5.77;;;;;;;;;;5019854;28;20204;-84
2023/04/28 02:49:55;;;;;;;6.30;5.70;;;;;;;;;;5037842;28;20172;-83
2023/04/28 02:52:24;;;;;;;7.40;6.45;;;;;;;;;;5038875;28;20470;-84
2023/04/28 02:54:53;;;;;;;9.87;6.00;;;;;;;;;;5039795;28;20175;-83
2023/04/28 02:57:19;;;;;;;6.97;6.07;;;;;;;;;;5040016;28;20267;-83
2023/04/28 02:59:45;;;;;;;7.73;5.53;;;;;;;;;;5039465;28;20176;-83
2023/04/28 03:02:11;;;;;;;7.30;6.30;;;;;;;;;;5039183;28;20462;-84
2023/04/28 03:04:37;;;;;;;6.30;5.63;;;;;;;;;;5039621;28;20171;-83
2023/04/28 03:07:03;;;;;;;7.47;5.50;;;;;;;;;;5039549;28;20203;-83
2023/04/28 03:09:30;;;;;;;8.20;5.60;;;;;;;;;;5022977;28;20184;-83
2023/04/28 03:11:56;;;;;;;7.18;6.28;;;;;;;;;;5039483;28;20419;-84
2023/04/28 03:14:22;;;;;;;7.93;5.90;;;;;;;;;;5039858;28;20171;-83
2023/04/28 03:16:48;;;;;;;6.80;5.53;;;;;;;;;;5039613;28;20176;-84
2023/04/28 03:19:17;;;;;;;6.47;5.87;;;;;;;;;;5039399;28;20176;-83
2023/04/28 03:21:43;;;;;;;7.47;6.00;;;;;;;;;;5039688;28;20176;-84
2023/04/28 03:24:09;;;;;;;6.90;5.80;;;;;;;;;;5039074;28;20284;-83
2023/04/28 03:26:35;;;;;;;7.60;5.80;;;;;;;;;;5039327;28;20171;-83
2023/04/28 03:29:04;;;;;;;8.40;6.03;;;;;;;;;;5039297;28;20200;-83
2023/04/28 03:31:30;;;;;;;7.90;6.03;;;;;;;;;;5039086;28;20176;-83
2023/04/28 03:33:58;;;;;;;7.03;5.97;;;;;;;;;;5022102;28;20180;-83
2023/04/28 03:36:24;;;;;;;8.23;5.67;;;;;;;;;;5023080;28;20246;-83
2023/04/28 03:38:50;;;;;;;6.43;5.83;;;;;;;;;;5038202;28;20187;-83
2023/04/28 03:41:17;;;;;;;6.93;6.27;;;;;;;;;;5038712;28;20179;-84
2023/04/28 03:43:45;;;;;;;8.43;6.20;;;;;;;;;;5034660;28;20172;-83
2023/04/28 03:46:11;;;;;;;8.50;6.17;;;;;;;;;;5035396;28;20229;-83
2023/04/28 03:48:37;;;;;;;7.23;6.00;;;;;;;;;;5035452;28;20204;-83
2023/04/28 03:51:03;;;;;;;8.80;6.40;;;;;;;;;;5033997;28;20169;-83
2023/04/28 03:53:32;;;;;;;8.67;6.30;;;;;;;;;;5035362;28;20176;-84
2023/04/28 03:55:58;;;;;;;8.40;6.73;;;;;;;;;;5035188;28;20173;-83
2023/04/28 03:58:24;;;;;;;9.63;6.43;;;;;;;;;;5035073;28;20181;-83
2023/04/28 04:00:50;;;;;;;7.23;6.13;;;;;;;;;;5035171;28;20267;-84
2023/04/28 04:03:20;;;;;;;11.27;6.70;;;;;;;;;;5046153;28;20180;-83
2023/04/28 04:05:47;;;;;;;7.53;6.30;;;;;;;;;;5038247;28;20179;-83
2023/04/28 04:08:13;;;;;;;9.63;6.57;;;;;;;;;;5021808;28;20204;-83
2023/04/28 04:10:44;;;;;;;8.17;6.73;;;;;;;;;;5038158;28;20172;-83
2023/04/28 04:13:10;;;;;;;7.85;6.80;;;;;;;;;;5037976;28;20412;-83
2023/04/28 04:15:36;;;;;;;7.97;7.10;;;;;;;;;;5021683;28;20200;-83
2023/04/28 04:18:02;;;;;;;8.60;6.43;;;;;;;;;;5037867;28;20183;-84
2023/04/28 04:20:28;;;;;;;7.80;7.00;;;;;;;;;;5021486;28;20214;-83
2023/04/28 04:22:54;;;;;;;8.85;7.95;;;;;;;;;;5036957;28;20423;-83
2023/04/28 04:25:20;;;;;;;9.57;8.40;;;;;;;;;;5036848;28;20515;-83
2023/04/28 04:27:46;;;;;;;9.30;7.37;;;;;;;;;;5038141;28;20477;-84
2023/04/28 04:30:12;;;;;;;9.73;7.40;;;;;;;;;;5037872;28;20172;-83
2023/04/28 04:32:38;;;;;;;9.90;7.70;;;;;;;;;;5037732;28;20237;-84
2023/04/28 04:35:05;;;;;;;9.63;7.88;;;;;;;;;;5037308;28;20499;-83
2023/04/28 04:37:31;;;;;;;9.10;7.57;;;;;;;;;;5038195;28;20191;-83
2023/04/28 04:39:57;;;;;;;8.57;7.55;;;;;;;;;;5037996;28;20515;-83
2023/04/28 04:42:23;;;;;;;9.70;8.70;;;;;;;;;;5020894;28;20420;-83
2023/04/28 04:44:49;;;;;;;8.60;7.60;;;;;;;;;;5021564;28;20180;-83
2023/04/28 04:47:15;;;;;;;10.07;7.53;;;;;;;;;;5037775;28;20239;-83
2023/04/28 04:49:44;;;;;;;9.23;8.25;;;;;;;;;;5036641;28;20416;-83
2023/04/28 04:52:10;;;;;;;9.88;8.88;;;;;;;;;;5035009;28;21657;-83
2023/04/28 04:54:36;;;;;;;10.37;8.10;;;;;;;;;;5016549;28;20242;-83
2023/04/28 04:57:05;;;;;;;11.90;7.63;;;;;;;;;;5041583;28;20258;-83
2023/04/28 04:59:31;;;;;;;9.70;8.80;;;;;;;;;;5020693;28;20419;-83
2023/04/28 05:01:57;;;;;;;9.43;8.47;;;;;;;;;;5037401;28;20179;-83
2023/04/28 05:04:23;;;;;;;9.40;8.40;;;;;;;;;;5036314;28;20408;-83
2023/04/28 05:06:50;;;;;;;10.93;8.75;;;;;;;;;;5036225;28;20760;-83
2023/04/28 05:09:16;;;;;;;9.73;8.17;;;;;;;;;;5040596;28;20183;-83
2023/04/28 05:11:42;;;;;;;11.57;8.63;;;;;;;;;;5038620;28;20271;-83
2023/04/28 05:14:08;;;;;;;11.52;9.18;;;;;;;;;;5036329;28;20408;-83
2023/04/28 05:16:37;;;;;;;9.50;8.43;;;;;;;;;;5021911;28;20215;-83
2023/04/28 05:19:03;;;;;;;10.97;8.87;;;;;;;;;;5036751;28;20172;-83
2023/04/28 05:21:29;;;;;;;11.40;9.20;;;;;;;;;;5036986;28;20172;-83
2023/04/28 05:23:58;;;;;;;11.13;10.00;;;;;;;;;;5036081;28;20412;-83
2023/04/28 05:26:25;;;;;;;15.73;9.20;;;;;;;;;;5033331;28;20208;-83
2023/04/28 05:28:51;;;;;;;11.65;10.23;;;;;;;;;;5036335;28;20451;-83
2023/04/28 05:31:20;;;;;;;11.55;10.07;;;;;;;;;;5019917;28;20408;-83
2023/04/28 05:33:46;;;;;;;13.60;11.18;;;;;;;;;;5035627;28;20469;-83
2023/04/28 05:36:12;;;;;;;12.53;9.57;;;;;;;;;;5036392;28;20172;-83
2023/04/28 05:38:38;;;;;;;11.97;9.63;;;;;;;;;;5020057;28;20184;-83
2023/04/28 05:41:07;;;;;;;13.00;10.00;;;;;;;;;;5034623;28;20185;-83
2023/04/28 05:43:33;;;;;;;12.50;10.77;;;;;;;;;;5036260;28;20477;-83
2023/04/28 05:46:00;;;;;;;16.60;11.27;;;;;;;;;;5036573;28;20182;-83
2023/04/28 05:48:26;;;;;;;12.30;10.20;;;;;;;;;;5036575;28;20235;-83
2023/04/28 05:50:52;;;;;;;13.07;11.53;;;;;;;;;;5036108;28;20176;-83
2023/04/28 05:53:18;;;;;;;12.93;11.20;;;;;;;;;;5036324;28;20215;-83
2023/04/28 05:55:44;;;;;;;16.43;11.70;;;;;;;;;;5035397;28;20199;-83
2023/04/28 05:58:10;;;;;;;16.13;11.13;;;;;;;;;;5034855;28;20192;-84
2023/04/28 06:00:38;;;;;;;17.90;11.97;;;;;;;;;;5034810;28;20182;-83
2023/04/28 06:03:05;;;;;;;16.27;12.37;;;;;;;;;;5035867;28;20184;-83
2023/04/28 06:05:31;;;;;;;14.53;11.50;;;;;;;;;;5019700;28;20183;-83
2023/04/28 06:08:02;;;;;;;15.82;13.75;;;;;;;;;;5034714;28;20515;-83
2023/04/28 06:10:28;;;;;;;15.10;12.53;;;;;;;;;;5020462;28;20184;-84
2023/04/28 06:12:54;;;;;;;15.57;13.80;;;;;;;;;;5035716;28;20419;-83
2023/04/28 06:15:22;;;;;;;16.37;14.53;;;;;;;;;;5034717;28;20514;-83
2023/04/28 06:17:48;;;;;;;15.32;13.73;;;;;;;;;;5034901;28;20419;-83
2023/04/28 06:20:15;;;;;;;18.00;14.13;;;;;;;;;;5035239;28;20498;-82
2023/04/28 06:22:42;;;;;;;20.33;14.80;;;;;;;;;;5034891;28;20231;-83
2023/04/28 06:25:12;;;;;;;19.45;16.95;;;;;;;;;;5034507;28;20451;-82
2023/04/28 06:27:38;;;;;;;17.73;14.97;;;;;;;;;;5035493;28;20204;-83
2023/04/28 06:30:04;;;;;;;20.27;14.97;;;;;;;;;;5035771;28;20205;-82
2023/04/28 06:32:30;;;;;;;23.30;15.87;;;;;;;;;;5035408;28;20192;-83
2023/04/28 06:34:56;;;;;;;21.30;16.33;;;;;;;;;;5035607;28;20188;-82
2023/04/28 06:37:22;;;;;;;19.90;17.00;;;;;;;;;;5019352;28;20283;-82
2023/04/28 06:39:48;;;;;;;19.00;17.00;;;;;;;;;;5035251;28;20192;-82
2023/04/28 06:42:19;;;;;;;20.77;16.47;;;;;;;;;;5035389;28;20184;-83
2023/04/28 06:44:45;;;;;;;21.20;16.90;;;;;;;;;;5035148;28;20186;-83
2023/04/28 06:47:11;;;;;;;19.50;16.67;;;;;;;;;;5036364;28;20184;-83
2023/04/28 06:49:42;;;;;;;21.40;17.33;;;;;;;;;;5033677;28;20208;-82
2023/04/28 06:52:08;;;;;;;18.33;16.53;;;;;;;;;;5034648;28;20244;-82
2023/04/28 06:54:37;;;;;;;20.73;18.07;;;;;;;;;;5034928;28;20248;-82
2023/04/28 06:57:03;;;;;;;22.27;18.50;;;;;;;;;;5018987;28;20184;-82
2023/04/28 06:59:29;;;;;;;23.40;18.70;;;;;;;;;;5035248;28;20172;-83
2023/04/28 07:01:55;;;;;;;24.43;18.53;;;;;;;;;;5035422;28;20176;-84
2023/04/28 07:04:24;;;;;;;26.80;19.03;;;;;;;;;;5036354;28;20181;-83
2023/04/28 07:06:51;;;;;;;21.57;19.27;;;;;;;;;;5035346;28;20193;-83
2023/04/28 07:09:17;;;;;;;21.77;19.47;;;;;;;;;;5036138;28;20208;-83
2023/04/28 07:11:46;;;;;;;23.57;19.37;;;;;;;;;;5035729;28;20176;-84
2023/04/28 07:14:12;;;;;;;25.37;19.07;;;;;;;;;;5035066;28;20176;-83
2023/04/28 07:16:38;;;;;;;24.27;20.30;;;;;;;;;;5034944;28;20247;-82
2023/04/28 07:19:06;;;;;;;24.40;19.23;;;;;;;;;;5038833;28;20184;-82
2023/04/28 07:21:33;;;;;;;22.50;19.47;;;;;;;;;;5022557;28;20180;-82
2023/04/28 07:23:59;;;;;;;23.33;19.40;;;;;;;;;;5022023;28;20210;-82
2023/04/28 07:26:25;;;;;;;22.33;19.87;;;;;;;;;;5038675;28;20227;-82
2023/04/28 07:28:51;;;;;;;22.67;20.20;;;;;;;;;;5038813;28;20211;-83
2023/04/28 07:31:17;;;;;;;23.53;20.03;;;;;;;;;;5037585;28;20203;-81
2023/04/28 07:33:43;;;;;;;23.67;20.20;;;;;;;;;;5022666;28;20270;-82
2023/04/28 07:36:09;;;;;;;22.10;19.80;;;;;;;;;;5021880;28;20207;-83
2023/04/28 07:38:36;;;;;;;22.80;20.13;;;;;;;;;;5014617;28;20195;-83
2023/04/28 07:41:03;;;;;;;20.75;18.33;;;;;;;;;;5038648;28;20443;-82
2023/04/28 07:43:29;;;;;;;23.40;16.93;;;;;;;;;;5007267;28;20191;-82
2023/04/28 07:45:56;;;;;;;23.23;19.23;;;;;;;;;;5036746;28;20184;-83
2023/04/28 07:48:22;;;;;;;20.40;17.33;;;;;;;;;;5037042;28;20235;-83
2023/04/28 07:50:48;;;;;;;19.20;17.10;;;;;;;;;;5038285;28;20199;-82
2023/04/28 07:53:14;;;;;;;18.60;16.60;;;;;;;;;;5037777;28;20241;-81
2023/04/28 07:55:43;;;;;;;21.87;18.20;;;;;;;;;;5037665;28;20184;-81
2023/04/28 07:58:10;;;;;;;25.85;23.33;;;;;;;;;;5017180;28;20505;-85
2023/04/28 08:00:36;;;;;;;24.00;20.43;;;;;;;;;;5037758;28;20175;-87
2023/04/28 08:03:02;;;;;;;23.30;20.03;;;;;;;;;;5019725;28;20196;-85
2023/04/28 08:05:28;;;;;;;27.17;20.93;;;;;;;;;;5037956;28;20207;-86
2023/04/28 08:07:57;;;;;;;23.80;20.43;;;;;;;;;;5019815;28;20284;-85
2023/04/28 08:10:25;;;;;;;25.07;20.93;;;;;;;;;;5021748;28;20184;-85
2023/04/28 08:12:51;;;;;;;24.67;21.37;;;;;;;;;;5037610;28;20184;-85
2023/04/28 08:15:20;;;;;;;24.20;21.70;;;;;;;;;;5038094;28;20180;-88
2023/04/28 08:17:46;;;;;;;25.37;20.70;;;;;;;;;;5038223;28;20250;-87
2023/04/28 08:20:14;;;;;;;24.83;20.93;;;;;;;;;;5038585;28;20222;-88
2023/04/28 08:22:40;;;;;;;25.03;20.73;;;;;;;;;;5038457;28;20265;-87
2023/04/28 08:25:07;;;;;;;23.67;21.13;;;;;;;;;;5037905;28;20231;-87
2023/04/28 08:27:33;;;;;;;26.20;21.60;;;;;;;;;;5036722;28;20204;-86
2023/04/28 08:30:02;;;;;;;27.23;21.30;;;;;;;;;;5037957;28;20183;-87
2023/04/28 08:32:28;;;;;;;25.80;21.27;;;;;;;;;;5037953;28;20199;-87
2023/04/28 08:34:54;;;;;;;26.83;21.60;;;;;;;;;;5037623;28;20176;-87
2023/04/28 08:37:20;;;;;;;24.37;20.13;;;;;;;;;;5021234;28;20192;-87
2023/04/28 08:39:49;;;;;;;26.57;20.60;;;;;;;;;;5036774;28;20210;-87
2023/04/28 08:42:17;;;;;;;25.87;20.60;;;;;;;;;;5037424;28;20237;-87
2023/04/28 08:44:46;;;;;;;22.33;19.03;;;;;;;;;;5037727;28;20190;-87
2023/04/28 08:47:13;;;;;;;23.40;19.97;;;;;;;;;;5021229;28;20187;-87
2023/04/28 08:49:39;;;;;;;22.43;19.77;;;;;;;;;;5037345;28;20176;-87
2023/04/28 08:52:12;;;;;;;22.37;20.07;;;;;;;;;;5021043;28;20180;-87
2023/04/28 08:54:39;;;;;;;24.77;19.43;;;;;;;;;;5037281;28;20180;-87
2023/04/28 08:57:08;;;;;;;23.37;20.63;;;;;;;;;;5026399;28;20195;-87
2023/04/28 08:59:34;;;;;;;23.03;20.07;;;;;;;;;;5017346;28;20176;-87
2023/04/28 09:02:00;;;;;;;24.07;20.00;;;;;;;;;;5017264;28;20185;-88
2023/04/28 09:04:26;;;;;;;23.40;21.00;;;;;;;;;;5017259;28;20230;-87
2023/04/28 09:06:52;;;;;;;25.17;20.90;;;;;;;;;;5017470;28;20191;-87
2023/04/28 09:09:20;;;;;;;23.80;21.33;;;;;;;;;;5017589;28;20212;-87
2023/04/28 09:11:55;;;;;;;25.27;21.93;;;;;;;;;;5017423;28;20187;-87
2023/04/28 09:14:27;;;;;;;23.90;21.17;;;;;;;;;;5033484;28;20188;-87
2023/04/28 09:16:54;;;;;;;22.83;20.20;;;;;;;;;;5017118;28;20212;-87
2023/04/28 09:19:20;;;;;;;23.00;20.53;;;;;;;;;;5017255;28;20180;-87
2023/04/28 09:21:49;;;;;;;23.00;20.60;;;;;;;;;;5017400;28;20210;-87
2023/04/28 09:24:29;;;;;;;24.03;20.60;;;;;;;;;;5016802;28;20228;-87
2023/04/28 09:26:55;;;;;;;21.60;19.30;;;;;;;;;;5016732;28;20263;-87
2023/04/28 09:29:21;;;;;;;23.10;20.53;;;;;;;;;;5017923;28;20208;-87
2023/04/28 09:31:47;;;;;;;22.77;20.33;;;;;;;;;;5033641;28;20210;-87
2023/04/28 09:34:14;;;;;;;24.40;21.80;;;;;;;;;;5036972;28;20180;-87
2023/04/28 09:36:40;;;;;;;26.30;20.90;;;;;;;;;;5020317;28;20249;-87
2023/04/28 09:39:07;;;;;;;22.97;20.50;;;;;;;;;;5036429;28;20206;-88
2023/04/28 09:41:37;;;;;;;24.43;20.33;;;;;;;;;;5034775;28;20184;-87
2023/04/28 09:44:17;;;;;;;25.02;22.30;;;;;;;;;;5036102;28;20419;-87
2023/04/28 09:46:46;;;;;;;26.63;23.83;;;;;;;;;;5035513;28;20412;-88
2023/04/28 09:49:12;;;;;;;26.27;23.60;;;;;;;;;;5027033;28;20433;-87
2023/04/28 09:51:38;;;;;;;25.65;22.90;;;;;;;;;;5015780;28;20409;-87
2023/04/28 09:54:04;;;;;;;25.38;22.85;;;;;;;;;;4999563;28;20413;-88
2023/04/28 09:56:31;;;;;;;27.00;24.35;;;;;;;;;;5015486;28;20409;-87
2023/04/28 09:58:58;;;;;;;26.70;24.00;;;;;;;;;;5015688;28;20567;-87
2023/04/28 10:01:24;;;;;;;25.48;22.88;;;;;;;;;;5015503;28;20496;-88
2023/04/28 10:03:53;;;;;;;26.55;23.90;;;;;;;;;;5022703;28;20420;-88
2023/04/28 10:06:19;;;;;;;26.42;23.73;;;;;;;;;;5035466;28;20414;-87
2023/04/28 10:08:47;;;;;;;27.25;24.20;;;;;;;;;;5035527;28;20450;-88
2023/04/28 10:11:15;;;;;;;27.63;24.75;;;;;;;;;;5019116;28;20412;-87
2023/04/28 10:13:42;;;;;;;27.35;24.60;;;;;;;;;;5035256;28;20483;-87
2023/04/28 10:16:09;;;;;;;27.33;24.67;;;;;;;;;;5035236;28;20466;-88
2023/04/28 10:18:38;;;;;;;27.48;24.58;;;;;;;;;;5034797;28;20407;-88
2023/04/28 10:21:06;;;;;;;26.15;23.48;;;;;;;;;;5035103;28;20412;-88
2023/04/28 10:23:35;;;;;;;25.38;22.77;;;;;;;;;;5035291;28;20416;-87
2023/04/28 10:26:02;;;;;;;26.38;23.70;;;;;;;;;;5035156;28;20434;-87
2023/04/28 10:28:28;;;;;;;25.98;23.30;;;;;;;;;;5035321;28;20435;-87
2023/04/28 10:31:16;;;;;;;25.98;23.48;;;;;;;;;;5014705;28;20453;-87
2023/04/28 10:33:42;;;;;;;26.60;23.98;;;;;;;;;;5015314;28;20402;-87
2023/04/28 10:36:09;;;;;;;27.67;24.95;;;;;;;;;;5015181;28;20441;-87
2023/04/28 10:38:36;;;;;;;27.67;25.00;;;;;;;;;;5015115;28;20405;-87
2023/04/28 10:41:03;;;;;;;29.33;26.58;;;;;;;;;;5015391;28;20439;-87
2023/04/28 10:43:30;;;;;;;29.27;26.33;;;;;;;;;;5015384;28;20418;-87
2023/04/28 10:45:57;;;;;;;31.17;27.98;;;;;;;;;;5015234;28;20406;-87
2023/04/28 10:48:43;;;;;;;31.38;28.27;;;;;;;;;;5014973;28;20472;-87
2023/04/28 10:51:11;;;;;;;32.63;29.50;;;;;;;;;;5019321;28;20409;-87
2023/04/28 10:53:43;;;;;;;33.25;30.25;;;;;;;;;;5017949;28;20409;-87
2023/04/28 10:56:20;;;;;;;34.92;31.45;;;;;;;;;;5018909;28;20405;-87
2023/04/28 10:58:50;;;;;;;35.37;32.03;;;;;;;;;;5018867;28;20398;-87
2023/04/28 11:01:19;;;;;;;36.80;32.92;;;;;;;;;;5018621;28;20409;-87
2023/04/28 11:06:19;;;;;;;33.57;30.23;;;;;;;;;;5037345;28;20169;-88
2023/04/28 11:08:45;;;;;;;39.72;35.83;;;;;;;;;;5018543;28;20425;-87
2023/04/28 11:11:13;;;;;;;39.60;35.85;;;;;;;;;;5018682;28;20401;-88
2023/04/28 11:13:40;;;;;;;40.30;36.63;;;;;;;;;;5018684;28;20410;-88
2023/04/28 11:16:06;;;;;;;39.58;35.97;;;;;;;;;;5018702;28;20405;-87
2023/04/28 11:18:51;;;;;;;41.80;37.85;;;;;;;;;;5018646;28;20415;-87
2023/04/28 11:21:17;;;;;;;39.97;36.07;;;;;;;;;;5018477;28;20413;-87
2023/04/28 11:23:46;;;;;;;36.45;33.05;;;;;;;;;;5018512;28;20616;-87
2023/04/28 11:26:12;;;;;;;33.40;30.40;;;;;;;;;;5001788;28;20457;-87
2023/04/28 11:28:54;;;;;;;28.43;25.83;;;;;;;;;;5018314;28;20464;-88
2023/04/28 11:31:22;;;;;;;27.33;25.03;;;;;;;;;;5018120;28;20413;-87
2023/04/28 11:33:54;;;;;;;28.58;26.17;;;;;;;;;;5002174;28;20414;-88
2023/04/28 11:36:23;;;;;;;26.13;23.92;;;;;;;;;;5018180;28;20410;-87
2023/04/28 11:38:49;;;;;;;26.48;24.27;;;;;;;;;;5018507;28;20505;-88
2023/04/28 11:41:18;;;;;;;26.55;24.20;;;;;;;;;;5001760;28;20417;-88
2023/04/28 11:43:44;;;;;;;22.10;20.20;;;;;;;;;;5019032;28;20180;-87
2023/04/28 11:46:15;;;;;;;19.73;18.03;;;;;;;;;;5002609;28;20234;-88
2023/04/28 11:48:41;;;;;;;19.47;17.73;;;;;;;;;;5030198;28;20216;-88
2023/04/28 11:51:07;;;;;;;21.63;19.53;;;;;;;;;;5038575;28;20176;-88
2023/04/28 11:53:43;;;;;;;20.60;18.70;;;;;;;;;;5038530;28;20179;-87
2023/04/28 11:56:10;;;;;;;20.43;18.63;;;;;;;;;;5022242;28;20172;-88
2023/04/28 11:58:36;;;;;;;20.17;18.27;;;;;;;;;;5022396;28;20206;-88
2023/04/28 12:01:06;;;;;;;19.33;17.63;;;;;;;;;;5038504;28;20200;-87
2023/04/28 12:03:33;;;;;;;19.93;18.13;;;;;;;;;;5037905;28;20175;-88
2023/04/28 12:05:59;;;;;;;21.00;19.03;;;;;;;;;;5038298;28;20270;-87
2023/04/28 12:08:28;;;;;;;22.47;20.33;;;;;;;;;;5022041;28;20249;-87
2023/04/28 12:11:11;;;;;;;22.40;20.30;;;;;;;;;;5038439;28;20203;-87
2023/04/28 12:13:37;;;;;;;22.23;20.00;;;;;;;;;;5038206;28;20179;-87
2023/04/28 12:16:07;;;;;;;22.80;20.60;;;;;;;;;;5036875;28;20180;-87
2023/04/28 12:18:33;;;;;;;22.10;20.10;;;;;;;;;;5038058;28;20164;-87
2023/04/28 12:21:00;;;;;;;24.77;22.55;;;;;;;;;;5035979;28;20477;-87
2023/04/28 12:23:33;;;;;;;25.98;23.52;;;;;;;;;;5036905;28;20416;-88
2023/04/28 12:25:59;;;;;;;27.73;25.23;;;;;;;;;;5036889;28;20436;-88
2023/04/28 12:28:41;;;;;;;25.75;23.35;;;;;;;;;;5020519;28;20454;-87
2023/04/28 12:31:08;;;;;;;24.38;22.20;;;;;;;;;;5037222;28;20414;-87
2023/04/28 12:33:39;;;;;;;21.52;19.52;;;;;;;;;;5020711;28;20399;-87
2023/04/28 12:36:06;;;;;;;19.52;17.73;;;;;;;;;;5037015;28;20416;-87
2023/04/28 12:38:32;;;;;;;21.27;19.25;;;;;;;;;;5036972;28;20415;-87
2023/04/28 12:40:59;;;;;;;20.70;18.60;;;;;;;;;;5037173;28;20408;-88
2023/04/28 12:43:28;;;;;;;20.20;18.45;;;;;;;;;;5034434;28;20431;-88
2023/04/28 12:45:55;;;;;;;20.83;18.85;;;;;;;;;;5036989;28;20558;-87
2023/04/28 12:48:24;;;;;;;21.10;19.08;;;;;;;;;;5036613;28;20518;-87
2023/04/28 12:50:50;;;;;;;22.60;20.40;;;;;;;;;;5020595;28;20415;-88
2023/04/28 12:53:18;;;;;;;22.75;20.63;;;;;;;;;;5036571;28;20449;-87
2023/04/28 12:55:45;;;;;;;19.67;17.67;;;;;;;;;;5037334;28;20321;-88
2023/04/28 12:58:11;;;;;;;20.45;17.75;;;;;;;;;;5037198;28;20404;-87
2023/04/28 13:00:37;;;;;;;23.25;20.95;;;;;;;;;;5036833;28;20446;-88
2023/04/28 13:03:03;;;;;;;22.87;20.60;;;;;;;;;;5036615;28;20443;-87
2023/04/28 13:05:29;;;;;;;21.42;19.45;;;;;;;;;;5036770;28;20511;-89
2023/04/28 13:07:58;;;;;;;19.20;17.40;;;;;;;;;;5036161;28;20459;-88
2023/04/28 13:10:25;;;;;;;18.40;16.60;;;;;;;;;;5027145;28;20412;-87
2023/04/28 13:12:51;;;;;;;18.17;16.57;;;;;;;;;;5036638;28;20408;-87
2023/04/28 13:15:20;;;;;;;17.17;15.50;;;;;;;;;;5035669;28;20404;-87
2023/04/28 13:17:47;;;;;;;17.23;15.65;;;;;;;;;;5036332;28;20478;-88
2023/04/28 13:20:13;;;;;;;17.37;15.77;;;;;;;;;;5036229;28;20407;-88
2023/04/28 13:22:40;;;;;;;16.85;15.35;;;;;;;;;;5020040;28;20416;-87
2023/04/28 13:25:06;;;;;;;16.20;14.73;;;;;;;;;;5019934;28;20481;-87
2023/04/28 13:27:32;;;;;;;15.90;14.40;;;;;;;;;;5036011;28;20470;-86
2023/04/28 13:29:58;;;;;;;15.57;14.07;;;;;;;;;;5036833;28;20404;-87
2023/04/28 13:32:28;;;;;;;15.10;13.75;;;;;;;;;;5035752;28;20422;-91
2023/04/28 13:34:54;;;;;;;14.15;12.85;;;;;;;;;;5010323;28;20427;-88
2023/04/28 13:37:20;;;;;;;14.30;13.00;;;;;;;;;;5034580;28;20494;-89
2023/04/28 13:39:49;;;;;;;13.43;12.32;;;;;;;;;;5035945;28;20477;-88
2023/04/28 13:42:15;;;;;;;13.55;12.25;;;;;;;;;;5004456;28;20422;-90
2023/04/28 13:44:41;;;;;;;12.60;11.38;;;;;;;;;;5035802;28;20422;-87
2023/04/28 13:47:08;;;;;;;12.60;11.45;;;;;;;;;;4999233;28;20405;-89
2023/04/28 13:49:36;;;;;;;12.85;11.57;;;;;;;;;;5015928;28;20465;-88
2023/04/28 13:52:02;;;;;;;12.18;11.07;;;;;;;;;;5018911;28;20409;-89
2023/04/28 13:54:28;;;;;;;12.35;11.25;;;;;;;;;;5036038;28;20400;-88
2023/04/28 13:56:57;;;;;;;12.63;11.43;;;;;;;;;;5019032;28;20416;-86
2023/04/28 13:59:23;;;;;;;12.73;11.63;;;;;;;;;;5034674;28;20450;-87
2023/04/28 14:01:49;;;;;;;12.80;11.60;;;;;;;;;;5035157;28;20535;-89
2023/04/28 14:04:17;;;;;;;12.57;11.48;;;;;;;;;;5035662;28;20416;-88
2023/04/28 14:06:43;;;;;;;12.43;11.33;;;;;;;;;;5035518;28;20431;-88
2023/04/28 14:09:09;;;;;;;12.55;11.45;;;;;;;;;;5019912;28;20456;-88
2023/04/28 14:11:35;;;;;;;12.88;11.77;;;;;;;;;;5017775;28;20422;-87
2023/04/28 14:14:01;;;;;;;13.10;11.90;;;;;;;;;;5018787;28;20453;-86
2023/04/28 14:16:29;;;;;;;13.20;12.07;;;;;;;;;;5035339;28;20440;-87
2023/04/28 14:18:55;;;;;;;13.23;12.00;;;;;;;;;;5034867;28;20507;-92
2023/04/28 14:21:21;;;;;;;14.40;13.10;;;;;;;;;;5036072;28;20415;-90
2023/04/28 14:23:49;;;;;;;13.98;12.70;;;;;;;;;;5034668;28;20415;-90
2023/04/28 14:26:15;;;;;;;11.52;10.52;;;;;;;;;;5034494;28;20447;-88
2023/04/28 14:28:41;;;;;;;11.30;10.30;;;;;;;;;;5035289;28;20419;-89